Time;durP1;ratioP1;P1;durP2;ratioP2;P2;SDS_P1;SDS_P2;PMS_P1;PMS_P2;Temp;Humidity;BMP_temperature;BMP_pressure;BME280_temperature;BME280_humidity;BME280_pressure;Samples;Min_cycle;Max_cycle;Signal;HPM_P1;HPM_P2
2022/04/11 00:04:24;;;;;;;6.50;2.53;;;2.40;99.90;;;;;;15605782;22;20092;-87
2022/04/11 00:10:26;;;;;;;4.22;2.30;;;2.40;99.90;;;;;;15608970;22;20051;-84
2022/04/11 00:16:28;;;;;;;3.75;2.40;;;2.30;99.90;;;;;;15604130;22;20631;-84
2022/04/11 00:22:34;;;;;;;6.28;2.53;;;2.20;99.90;;;;;;15607541;22;20043;-86
2022/04/11 00:28:36;;;;;;;4.90;3.10;;;2.20;99.90;;;;;;15604943;22;20451;-83
2022/04/11 00:34:37;;;;;;;4.10;2.45;;;2.20;99.90;;;;;;15630278;22;20023;-87
2022/04/11 00:40:39;;;;;;;6.85;3.00;;;2.20;99.90;;;;;;15605775;22;20462;-83
2022/04/11 00:46:42;;;;;;;5.25;3.35;;;2.10;99.90;;;;;;15633669;22;20031;-87
2022/04/11 00:52:52;;;;;;;6.60;3.72;;;2.30;99.90;;;;;;15630788;22;20024;-87
2022/04/11 00:58:55;;;;;;;10.95;4.78;;;2.20;99.90;;;;;;15601770;22;20027;-86
2022/04/11 01:04:57;;;;;;;9.05;4.90;;;2.10;99.90;;;;;;15601067;22;20152;-86
2022/04/11 01:11:00;;;;;;;13.88;5.28;;;2.00;99.90;;;;;;15625050;22;20034;-84
2022/04/11 01:17:02;;;;;;;7.53;4.63;;;2.00;99.90;;;;;;15605480;22;20019;-84
2022/04/11 01:23:04;;;;;;;8.73;4.60;;;2.00;99.90;;;;;;15597656;22;20050;-84
2022/04/11 01:29:08;;;;;;;10.60;5.13;;;2.00;99.90;;;;;;15600948;22;20023;-83
2022/04/11 01:35:21;;;;;;;7.53;4.90;;;2.10;99.90;;;;;;15629861;22;20055;-83
2022/04/11 01:41:22;;;;;;;8.95;4.32;;;2.00;99.90;;;;;;15601933;22;20100;-84
2022/04/11 01:47:24;;;;;;;10.50;5.00;;;1.90;99.90;;;;;;15630769;22;20503;-84
2022/04/11 01:53:26;;;;;;;7.75;5.15;;;1.70;99.90;;;;;;15603883;22;20094;-87
2022/04/11 01:59:28;;;;;;;8.00;5.03;;;1.70;99.90;;;;;;15602322;22;20460;-86
2022/04/11 02:05:30;;;;;;;8.55;4.95;;;1.50;99.90;;;;;;15600372;22;20031;-86
2022/04/11 02:11:32;;;;;;;8.52;5.22;;;1.50;99.90;;;;;;15602593;22;20669;-86
2022/04/11 02:17:34;;;;;;;11.27;5.22;;;1.40;99.90;;;;;;15629458;22;20105;-84
2022/04/11 02:23:36;;;;;;;8.13;5.45;;;1.40;99.90;;;;;;15603866;22;20490;-84
2022/04/11 02:29:38;;;;;;;9.18;5.45;;;1.50;99.90;;;;;;15605130;22;20065;-84
2022/04/11 02:35:41;;;;;;;12.07;5.13;;;1.40;99.90;;;;;;15607551;22;20107;-84
2022/04/11 02:41:42;;;;;;;12.93;5.57;;;1.40;99.90;;;;;;15601832;22;20027;-84
2022/04/11 02:47:45;;;;;;;11.07;5.63;;;1.30;99.90;;;;;;15602125;22;20023;-84
2022/04/11 02:53:46;;;;;;;8.85;5.07;;;1.40;99.90;;;;;;15606493;22;20111;-86
2022/04/11 02:59:49;;;;;;;8.98;4.70;;;1.50;99.90;;;;;;15600305;22;20026;-86
2022/04/11 03:05:51;;;;;;;8.93;5.18;;;1.30;99.90;;;;;;15601057;22;20138;-84
2022/04/11 03:11:53;;;;;;;8.18;4.63;;;1.20;99.90;;;;;;15602957;22;20045;-86
2022/04/11 03:17:55;;;;;;;10.43;4.40;;;1.20;99.90;;;;;;15600185;22;20047;-84
2022/04/11 03:23:57;;;;;;;8.43;4.25;;;1.20;99.90;;;;;;15626984;22;20081;-84
2022/04/11 03:29:59;;;;;;;24.15;5.70;;;1.10;99.90;;;;;;15603428;22;20124;-83
2022/04/11 03:36:01;;;;;;;7.85;4.50;;;1.10;99.90;;;;;;15650779;22;20089;-84
2022/04/11 03:42:04;;;;;;;8.15;4.15;;;1.10;99.90;;;;;;15601853;22;20030;-87
2022/04/11 03:48:06;;;;;;;8.63;4.53;;;1.00;99.90;;;;;;15604865;22;20394;-84
2022/04/11 03:54:08;;;;;;;7.78;4.30;;;1.10;99.90;;;;;;15605434;22;20027;-87
2022/04/11 04:00:11;;;;;;;7.38;4.80;;;1.20;99.90;;;;;;15630509;22;20148;-84
2022/04/11 04:06:13;;;;;;;8.80;4.18;;;1.00;99.90;;;;;;15630517;22;20054;-84
2022/04/11 04:12:19;;;;;;;5.10;3.72;;;1.00;99.90;;;;;;15626053;22;20041;-84
2022/04/11 04:18:22;;;;;;;6.10;3.20;;;1.00;99.90;;;;;;15607766;22;20019;-84
2022/04/11 04:24:24;;;;;;;7.03;3.60;;;0.80;99.90;;;;;;15607325;22;20100;-86
2022/04/11 04:30:28;;;;;;;7.03;3.55;;;0.90;99.90;;;;;;15630167;22;20023;-84
2022/04/11 04:36:30;;;;;;;6.28;3.53;;;0.80;99.90;;;;;;15629577;22;20063;-86
2022/04/11 04:42:32;;;;;;;6.68;3.40;;;0.90;99.90;;;;;;15592778;22;20078;-87
2022/04/11 04:48:34;;;;;;;6.03;3.55;;;1.10;99.90;;;;;;15585134;22;20793;-83
2022/04/11 04:54:36;;;;;;;6.63;3.17;;;1.10;99.90;;;;;;15600886;22;20034;-86
2022/04/11 05:00:39;;;;;;;5.90;3.05;;;1.10;99.90;;;;;;15600584;22;20026;-83
2022/04/11 05:06:41;;;;;;;8.95;4.10;;;1.20;99.90;;;;;;15605271;22;20102;-86
2022/04/11 05:12:44;;;;;;;10.27;4.70;;;1.30;99.90;;;;;;15599921;22;20106;-85
2022/04/11 05:18:46;;;;;;;8.47;4.00;;;1.70;99.90;;;;;;15602688;22;20134;-86
2022/04/11 05:24:48;;;;;;;6.97;3.42;;;2.30;99.90;;;;;;15621741;22;20024;-84
2022/04/11 05:30:50;;;;;;;6.07;3.28;;;2.90;99.90;;;;;;15628925;22;20023;-84
2022/04/11 05:36:52;;;;;;;6.95;3.63;;;3.20;99.90;;;;;;15600099;22;20015;-86
2022/04/11 05:42:54;;;;;;;6.97;3.42;;;3.10;99.90;;;;;;15627628;22;20438;-83
2022/04/11 05:48:55;;;;;;;4.43;3.20;;;3.40;99.90;;;;;;15596480;22;20668;-83
2022/04/11 05:54:57;;;;;;;6.25;3.70;;;3.30;99.90;;;;;;15597853;22;20538;-86
2022/04/11 06:00:59;;;;;;;10.43;4.70;;;3.30;99.90;;;;;;15624178;22;20102;-86
2022/04/11 06:07:01;;;;;;;6.05;4.00;;;3.60;99.90;;;;;;15623794;22;20034;-86
2022/04/11 06:13:03;;;;;;;7.82;4.10;;;3.70;99.90;;;;;;15598419;22;20518;-83
2022/04/11 06:19:05;;;;;;;7.40;4.55;;;3.70;99.90;;;;;;15623682;22;20024;-83
2022/04/11 06:25:08;;;;;;;6.60;3.90;;;3.90;99.90;;;;;;15597423;22;20055;-86
2022/04/11 06:31:11;;;;;;;6.95;3.92;;;4.20;99.90;;;;;;15599058;22;20153;-84
2022/04/11 06:37:13;;;;;;;7.57;3.90;;;4.30;99.90;;;;;;15598093;22;20019;-84
2022/04/11 06:43:15;;;;;;;7.55;3.90;;;4.40;99.90;;;;;;15599641;22;20035;-83
2022/04/11 06:49:16;;;;;;;8.82;4.50;;;4.70;99.90;;;;;;15637590;22;20479;-84
2022/04/11 06:55:18;;;;;;;5.63;3.90;;;5.00;99.90;;;;;;15604854;22;20030;-86
2022/04/11 07:01:20;;;;;;;8.40;4.55;;;5.30;99.90;;;;;;15607098;22;20344;-84
2022/04/11 07:07:24;;;;;;;7.28;4.15;;;5.20;99.90;;;;;;15618406;22;20023;-85
2022/04/11 07:13:26;;;;;;;7.28;4.43;;;5.20;99.90;;;;;;15609796;22;20039;-84
2022/04/11 07:19:28;;;;;;;7.40;4.20;;;5.40;99.90;;;;;;15609654;22;20030;-83
2022/04/11 07:25:30;;;;;;;9.60;4.75;;;5.40;99.90;;;;;;15635171;22;20031;-83
2022/04/11 07:31:32;;;;;;;6.70;4.18;;;5.50;99.90;;;;;;15608981;22;20094;-86
2022/04/11 07:37:34;;;;;;;6.70;4.20;;;5.70;99.90;;;;;;15606260;22;20118;-85
2022/04/11 07:43:36;;;;;;;7.07;4.57;;;5.70;99.90;;;;;;15617255;22;20023;-84
2022/04/11 07:49:38;;;;;;;7.45;4.30;;;5.80;99.90;;;;;;15613276;22;20031;-84
2022/04/11 07:55:40;;;;;;;7.93;3.72;;;6.00;99.90;;;;;;15631862;22;20030;-85
2022/04/11 08:01:41;;;;;;;7.88;3.72;;;6.40;99.90;;;;;;15638623;22;20045;-83
2022/04/11 08:07:44;;;;;;;6.78;3.97;;;7.00;99.90;;;;;;15642947;22;20034;-84
2022/04/11 08:13:46;;;;;;;7.70;3.55;;;7.60;99.90;;;;;;15640189;22;20027;-87
2022/04/11 08:19:48;;;;;;;5.78;4.00;;;7.60;99.90;;;;;;15607774;22;20019;-85
2022/04/11 08:25:49;;;;;;;9.05;4.13;;;7.80;99.90;;;;;;15635104;22;20775;-86
2022/04/11 08:31:52;;;;;;;5.75;3.55;;;7.90;99.90;;;;;;15613556;22;20061;-86
2022/04/11 08:37:53;;;;;;;5.75;3.00;;;7.90;99.90;;;;;;15632647;22;20015;-83
2022/04/11 08:43:56;;;;;;;4.45;2.15;;;8.30;99.90;;;;;;15625611;22;20419;-86
2022/04/11 08:50:00;;;;;;;6.78;3.50;;;8.30;99.90;;;;;;15610756;22;20105;-83
2022/04/11 08:56:02;;;;;;;6.50;2.80;;;8.60;99.90;;;;;;15632936;22;20020;-86
2022/04/11 09:02:10;;;;;;;7.28;2.42;;;8.80;99.90;;;;;;15630591;22;20027;-85
2022/04/11 09:08:12;;;;;;;8.25;2.70;;;9.50;99.90;;;;;;15600710;22;20426;-86
2022/04/11 09:14:14;;;;;;;6.38;2.67;;;10.00;99.90;;;;;;15604352;22;20478;-84
2022/04/11 09:20:21;;;;;;;5.35;2.50;;;10.10;99.90;;;;;;15611300;22;20118;-86
2022/04/11 09:26:24;;;;;;;5.40;2.25;;;10.60;99.90;;;;;;15601547;22;20023;-86
2022/04/11 09:32:26;;;;;;;5.25;2.70;;;10.70;99.90;;;;;;15607971;22;20100;-84
2022/04/11 09:38:29;;;;;;;9.18;3.55;;;10.60;99.90;;;;;;15608833;22;20436;-84
2022/04/11 09:44:31;;;;;;;6.75;3.40;;;10.30;99.90;;;;;;15624933;22;20098;-84
2022/04/11 09:50:33;;;;;;;7.40;3.65;;;10.70;99.90;;;;;;15601715;22;20035;-86
2022/04/11 09:56:36;;;;;;;8.48;3.88;;;11.10;99.90;;;;;;15604614;22;20026;-87
2022/04/11 10:02:39;;;;;;;8.60;3.95;;;11.70;99.90;;;;;;15603336;22;20092;-84
2022/04/11 10:08:42;;;;;;;12.10;5.00;;;11.70;99.90;;;;;;15628960;22;20031;-87
2022/04/11 10:14:46;;;;;;;8.23;4.28;;;11.50;99.90;;;;;;15626856;22;20027;-85
2022/04/11 10:21:06;;;;;;;8.18;4.38;;;11.40;99.90;;;;;;15600502;22;20037;-84
2022/04/11 10:27:29;;;;;;;8.00;4.05;;;11.60;99.90;;;;;;15608693;22;20352;-85
2022/04/11 10:33:50;;;;;;;6.93;3.90;;;11.90;99.90;;;;;;15602824;22;20065;-87
2022/04/11 10:40:17;;;;;;;8.88;4.30;;;12.30;99.90;;;;;;15632749;22;20108;-84
2022/04/11 10:46:19;;;;;;;10.73;5.10;;;12.70;99.90;;;;;;15615972;22;20055;-84
2022/04/11 10:52:31;;;;;;;11.02;4.28;;;12.80;99.90;;;;;;15622187;22;20023;-87
2022/04/11 10:58:45;;;;;;;8.32;4.38;;;13.00;99.90;;;;;;15660205;22;20078;-85
2022/04/11 11:04:48;;;;;;;6.97;4.25;;;12.90;99.90;;;;;;15607655;22;20030;-84
2022/04/11 11:10:57;;;;;;;8.07;4.57;;;12.90;99.90;;;;;;15665902;22;20019;-85
2022/04/11 11:16:59;;;;;;;11.65;4.55;;;12.90;99.90;;;;;;15612105;22;20019;-84
2022/04/11 11:23:19;;;;;;;6.80;3.92;;;12.90;99.90;;;;;;15630871;22;20492;-86
2022/04/11 11:29:28;;;;;;;5.40;3.95;;;13.10;99.90;;;;;;15603327;22;20079;-85
2022/04/11 11:35:30;;;;;;;6.40;4.10;;;13.60;99.90;;;;;;15631478;22;20035;-87
2022/04/11 11:41:32;;;;;;;5.97;3.58;;;13.60;99.90;;;;;;15602513;22;20148;-85
2022/04/11 11:47:34;;;;;;;7.68;4.22;;;14.00;99.90;;;;;;15600811;22;20027;-87
2022/04/11 11:53:50;;;;;;;8.13;4.30;;;14.10;99.90;;;;;;15602878;22;20027;-84
2022/04/11 12:00:03;;;;;;;6.90;4.68;;;13.90;99.90;;;;;;15612770;22;20023;-87
2022/04/11 12:06:05;;;;;;;8.80;4.32;;;14.00;99.90;;;;;;15603032;22;20026;-88
2022/04/11 12:12:09;;;;;;;7.55;3.65;;;14.30;99.90;;;;;;15606045;22;20515;-85
2022/04/11 12:18:12;;;;;;;9.57;4.05;;;14.00;99.90;;;;;;15636444;22;20023;-88
2022/04/11 12:24:14;;;;;;;7.57;3.42;;;13.90;99.90;;;;;;15602731;22;20046;-85
2022/04/11 12:30:17;;;;;;;6.25;3.70;;;13.70;99.90;;;;;;15632959;22;20490;-85
2022/04/11 12:36:24;;;;;;;6.38;3.85;;;14.30;99.90;;;;;;15603733;22;20675;-88
2022/04/11 12:42:27;;;;;;;6.78;3.72;;;14.20;99.90;;;;;;15604752;22;20023;-87
2022/04/11 12:48:28;;;;;;;6.03;3.35;;;14.00;99.90;;;;;;15608470;22;20033;-87
2022/04/11 12:54:42;;;;;;;6.68;3.70;;;14.00;99.90;;;;;;15633549;22;20140;-88
2022/04/11 13:00:56;;;;;;;6.27;4.10;;;14.60;99.90;;;;;;15611805;22;20019;-87
2022/04/11 13:06:57;;;;;;;8.15;4.18;;;14.80;99.90;;;;;;15607262;22;20084;-88
2022/04/11 13:13:01;;;;;;;8.10;3.45;;;15.20;99.90;;;;;;15598415;22;20043;-85
2022/04/11 13:19:03;;;;;;;;;;;14.60;99.90;;;;;;15607986;22;20019;-88
2022/04/11 13:25:06;;;;;;;4.70;3.67;;;14.90;99.90;;;;;;15608702;22;19922;-88
2022/04/11 13:31:08;;;;;;;10.25;3.53;;;15.20;99.90;;;;;;15603530;22;20105;-87
2022/04/11 13:37:10;;;;;;;5.53;3.30;;;14.90;99.90;;;;;;15662046;22;20747;-85
2022/04/11 13:43:28;;;;;;;7.68;3.72;;;15.00;99.90;;;;;;15606523;22;20064;-85
2022/04/11 13:49:31;;;;;;;7.55;3.65;;;14.80;99.90;;;;;;15614831;22;20027;-85
2022/04/11 13:55:33;;;;;;;7.53;4.10;;;14.30;99.90;;;;;;15609516;22;20053;-84
2022/04/11 14:01:36;;;;;;;7.15;3.83;;;14.40;99.90;;;;;;15607295;22;20629;-87
2022/04/11 14:07:43;;;;;;;5.75;3.47;;;15.00;99.90;;;;;;15633192;22;20020;-85
2022/04/11 14:13:45;;;;;;;7.95;4.15;;;15.20;99.90;;;;;;15607189;22;20343;-88
2022/04/11 14:19:47;;;;;;;6.78;3.30;;;15.10;99.90;;;;;;15632463;22;20023;-84
2022/04/11 14:25:49;;;;;;;8.95;3.58;;;15.10;99.90;;;;;;15629894;22;20050;-87
2022/04/11 14:31:51;;;;;;;11.18;4.15;;;15.30;99.90;;;;;;15632824;22;20023;-87
2022/04/11 14:37:53;;;;;;;5.43;3.50;;;15.30;99.90;;;;;;15628997;22;20050;-87
2022/04/11 14:43:55;;;;;;;4.82;3.38;;;15.20;99.90;;;;;;15630362;22;20030;-84
2022/04/11 14:49:56;;;;;;;4.63;3.53;;;15.50;99.90;;;;;;15608187;22;20319;-83
2022/04/11 14:55:58;;;;;;;7.18;3.35;;;15.00;99.90;;;;;;15633176;22;20023;-84
2022/04/11 15:02:04;;;;;;;7.90;3.25;;;14.90;99.90;;;;;;15602218;22;20027;-84
2022/04/11 15:08:07;;;;;;;6.72;2.88;;;15.70;99.90;;;;;;15606674;22;20023;-84
2022/04/11 15:14:09;;;;;;;6.68;3.45;;;15.90;99.90;;;;;;15625804;22;20059;-84
2022/04/11 15:20:11;;;;;;;9.48;2.92;;;15.20;99.90;;;;;;15630704;22;20854;-85
2022/04/11 15:26:13;;;;;;;5.65;2.72;;;15.00;99.90;;;;;;15602698;22;20023;-84
2022/04/11 15:32:16;;;;;;;7.72;2.80;;;15.50;99.90;;;;;;15605883;22;20400;-86
2022/04/11 15:38:18;;;;;;;4.72;2.90;;;15.30;99.90;;;;;;15637778;22;20026;-84
2022/04/11 15:44:20;;;;;;;4.40;2.47;;;14.90;99.90;;;;;;15606786;22;20096;-84
2022/04/11 15:50:24;;;;;;;4.80;2.58;;;14.50;99.90;;;;;;15611186;22;20026;-84
2022/04/11 15:56:44;;;;;;;6.30;3.05;;;14.80;99.90;;;;;;15636453;22;20048;-86
2022/04/11 16:02:46;;;;;;;5.55;2.83;;;14.90;99.90;;;;;;15607749;22;20023;-84
2022/04/11 16:08:48;;;;;;;5.28;2.42;;;14.40;99.90;;;;;;15629606;22;20100;-84
2022/04/11 16:14:51;;;;;;;4.22;2.60;;;14.50;99.90;;;;;;15605299;22;20462;-86
2022/04/11 16:20:54;;;;;;;4.55;2.72;;;14.90;99.90;;;;;;15616374;22;20031;-84
2022/04/11 16:26:57;;;;;;;5.20;2.50;;;15.20;99.90;;;;;;15498975;22;20031;-86
2022/04/11 16:32:59;;;;;;;6.07;3.00;;;15.00;99.90;;;;;;15483315;22;20477;-84
2022/04/11 16:39:01;;;;;;;5.60;2.88;;;14.90;99.90;;;;;;15480248;23;20087;-83
2022/04/11 16:45:04;;;;;;;8.57;3.17;;;14.60;99.90;;;;;;15483493;23;20031;-84
2022/04/11 16:51:07;;;;;;;6.45;3.40;;;14.20;99.90;;;;;;15476700;22;20535;-84
2022/04/11 16:57:09;;;;;;;8.25;4.30;;;14.10;99.90;;;;;;15490763;23;20020;-86
2022/04/11 17:03:11;;;;;;;5.85;2.95;;;13.80;99.90;;;;;;15481679;22;20101;-86
2022/04/11 17:09:13;;;;;;;5.38;2.78;;;13.30;99.90;;;;;;15484835;23;20406;-87
2022/04/11 17:21:38;;;;;;;5.78;2.78;;;12.90;99.90;;;;;;15484352;22;20063;-84
2022/04/11 17:27:39;;;;;;;6.55;2.80;;;12.60;99.90;;;;;;15481008;22;20117;-86
2022/04/11 17:33:42;;;;;;;13.57;8.07;;;12.20;99.90;;;;;;15484640;22;20035;-84
2022/04/11 17:39:43;;;;;;;6.45;3.67;;;11.90;99.90;;;;;;15484219;23;20832;-86
2022/04/11 17:45:47;;;;;;;8.23;3.38;;;11.70;99.90;;;;;;15486095;22;20024;-83
2022/04/11 17:51:50;;;;;;;7.05;2.90;;;11.50;99.90;;;;;;15475471;22;20470;-86
2022/04/11 17:57:53;;;;;;;6.15;3.28;;;11.30;99.90;;;;;;15482113;22;20950;-86
2022/04/11 18:03:55;;;;;;;5.28;2.58;;;11.10;99.90;;;;;;15484988;22;20024;-86
2022/04/11 18:09:57;;;;;;;5.25;2.53;;;11.00;99.90;;;;;;15483716;23;20689;-84
2022/04/11 18:15:59;;;;;;;5.18;2.35;;;10.80;99.90;;;;;;15480997;22;20119;-84
2022/04/11 18:22:03;;;;;;;9.38;3.10;;;10.60;99.90;;;;;;15481051;22;20036;-84
2022/04/11 18:34:26;;;;;;;4.47;2.47;;;10.30;99.90;;;;;;15638586;22;20054;-86
2022/04/11 18:40:28;;;;;;;5.43;2.53;;;10.10;99.90;;;;;;15603487;22;20027;-84
2022/04/11 18:46:31;;;;;;;5.70;2.72;;;9.90;99.90;;;;;;15606893;22;20051;-87
2022/04/11 18:52:34;;;;;;;5.88;2.80;;;9.80;99.90;;;;;;15642041;22;20031;-86
2022/04/11 18:58:36;;;;;;;6.18;3.08;;;9.60;99.90;;;;;;15638937;22;20015;-84
2022/04/11 19:04:38;;;;;;;7.65;3.20;;;9.50;99.90;;;;;;15611038;22;20035;-84
2022/04/11 19:10:40;;;;;;;7.10;2.80;;;9.30;99.90;;;;;;15620429;22;20747;-87
2022/04/11 19:16:42;;;;;;;4.95;3.10;;;9.10;99.90;;;;;;15628293;22;20447;-86
2022/04/11 19:22:49;;;;;;;7.93;3.38;;;9.10;99.90;;;;;;15634530;22;20027;-87
2022/04/11 19:28:52;;;;;;;3.85;2.47;;;9.00;99.90;;;;;;15661831;22;20035;-86
2022/04/11 19:34:53;;;;;;;6.60;3.00;;;9.10;99.90;;;;;;15617657;22;20023;-86
2022/04/11 19:40:56;;;;;;;7.75;3.42;;;9.10;99.90;;;;;;15621536;22;20085;-84
2022/04/11 19:46:58;;;;;;;5.20;2.90;;;9.10;99.90;;;;;;15646819;22;20073;-84
2022/04/11 19:53:00;;;;;;;7.45;3.00;;;9.10;99.90;;;;;;15634600;22;20414;-86
2022/04/11 19:59:02;;;;;;;6.63;3.03;;;9.20;99.90;;;;;;15607710;22;20577;-86
2022/04/11 20:05:09;;;;;;;7.20;3.67;;;9.10;99.90;;;;;;15645131;22;20108;-83
2022/04/11 20:11:14;;;;;;;13.05;6.20;;;9.00;99.90;;;;;;15615729;22;20081;-83
2022/04/11 20:17:16;;;;;;;36.90;14.93;;;9.00;99.90;;;;;;15610963;22;20140;-86
2022/04/11 20:23:18;;;;;;;8.68;3.92;;;8.90;99.90;;;;;;15637825;22;20023;-84
2022/04/11 20:29:20;;;;;;;8.48;3.97;;;9.00;99.90;;;;;;15613230;22;20034;-83
2022/04/11 20:35:23;;;;;;;7.82;3.92;;;9.00;99.90;;;;;;15640259;22;20117;-83
2022/04/11 20:41:25;;;;;;;6.28;3.95;;;8.90;99.90;;;;;;15608436;22;20050;-85
2022/04/11 20:47:27;;;;;;;6.50;3.92;;;8.80;99.90;;;;;;15639102;22;20023;-83
2022/04/11 20:53:29;;;;;;;6.65;3.63;;;8.70;99.90;;;;;;15634059;22;20090;-83
2022/04/11 20:59:30;;;;;;;7.32;3.78;;;8.70;99.90;;;;;;15608454;22;20132;-85
2022/04/11 21:05:32;;;;;;;7.30;3.80;;;8.70;99.90;;;;;;15606161;22;20125;-86
2022/04/11 21:11:34;;;;;;;6.85;3.70;;;8.70;99.90;;;;;;15632964;22;20094;-83
2022/04/11 21:17:37;;;;;;;6.90;3.70;;;8.60;99.90;;;;;;15635679;22;20148;-83
2022/04/11 21:23:39;;;;;;;9.77;4.25;;;8.50;99.90;;;;;;15608413;22;20027;-83
2022/04/11 21:29:40;;;;;;;7.05;4.43;;;8.50;99.90;;;;;;15608465;22;20031;-83
2022/04/11 21:35:42;;;;;;;15.95;7.65;;;8.40;99.90;;;;;;15606195;22;20446;-85
2022/04/11 21:41:45;;;;;;;10.75;6.35;;;8.40;99.90;;;;;;15604260;22;20023;-86
2022/04/11 21:47:47;;;;;;;5.93;3.90;;;8.30;99.90;;;;;;15606695;22;20042;-83
2022/04/11 21:53:48;;;;;;;8.57;4.50;;;8.10;99.90;;;;;;15633459;22;20439;-83
2022/04/11 21:59:50;;;;;;;7.57;5.20;;;8.00;99.90;;;;;;15607755;22;20016;-83
2022/04/11 22:05:52;;;;;;;7.82;4.72;;;8.00;99.90;;;;;;15606504;22;20105;-85
2022/04/11 22:11:54;;;;;;;6.60;3.50;;;7.90;99.90;;;;;;15634285;22;20034;-83
2022/04/11 22:17:56;;;;;;;7.00;3.60;;;7.90;99.90;;;;;;15606903;22;20145;-86
2022/04/11 22:23:58;;;;;;;6.90;3.72;;;7.90;99.90;;;;;;15609621;22;20094;-83
2022/04/11 22:30:01;;;;;;;5.70;3.17;;;7.90;99.90;;;;;;15615318;22;20026;-85
2022/04/11 22:36:04;;;;;;;6.45;3.70;;;7.90;99.90;;;;;;15645764;22;20035;-86
2022/04/11 22:42:08;;;;;;;8.30;3.80;;;7.80;99.90;;;;;;15640610;22;20023;-83
2022/04/11 22:48:10;;;;;;;7.63;3.80;;;7.80;99.90;;;;;;15638831;22;20058;-83
2022/04/11 22:54:11;;;;;;;5.82;3.47;;;7.70;99.90;;;;;;15607141;22;20110;-83
2022/04/11 23:00:14;;;;;;;7.05;3.78;;;7.80;99.90;;;;;;15600302;22;20062;-83
2022/04/11 23:06:16;;;;;;;9.35;3.78;;;7.70;99.90;;;;;;15631732;22;20088;-86
2022/04/11 23:12:18;;;;;;;6.65;3.63;;;7.70;99.90;;;;;;15629183;22;20467;-86
2022/04/11 23:18:21;;;;;;;5.93;3.65;;;7.70;99.90;;;;;;15634583;22;20579;-86
2022/04/11 23:24:23;;;;;;;6.38;3.75;;;7.70;99.90;;;;;;15631005;22;20094;-83
2022/04/11 23:30:25;;;;;;;10.20;3.95;;;7.70;99.90;;;;;;15632009;22;20043;-85
2022/04/11 23:36:28;;;;;;;6.82;3.50;;;7.60;99.90;;;;;;15602079;22;20026;-86
2022/04/11 23:42:30;;;;;;;9.57;3.90;;;7.70;99.90;;;;;;15632376;22;20039;-86
2022/04/11 23:48:32;;;;;;;7.03;3.80;;;7.70;99.90;;;;;;15604706;22;20023;-83
2022/04/11 23:54:34;;;;;;;7.85;4.20;;;7.70;99.90;;;;;;15636065;22;20021;-83
